Time;durP1;ratioP1;P1;durP2;ratioP2;P2;SDS_P1;SDS_P2;PMS_P1;PMS_P2;Temp;Humidity;BMP_temperature;BMP_pressure;BME280_temperature;BME280_humidity;BME280_pressure;Samples;Min_cycle;Max_cycle;Signal;HPM_P1;HPM_P2
2023/04/14 00:01:39;;;;;;;0.20;0.20;;;;;;;7.37;72.88;100907.94;4996486;28;96820;-32
2023/04/14 00:04:05;;;;;;;0.77;0.43;;;;;;;7.32;72.90;100907.28;4997112;28;99680;-32
2023/04/14 00:06:31;;;;;;;2.80;0.45;;;;;;;7.31;72.97;100917.16;4997194;28;99313;-32
2023/04/14 00:08:57;;;;;;;5.22;0.93;;;;;;;7.27;73.41;100920.06;4997899;28;96515;-32
2023/04/14 00:11:22;;;;;;;4.05;0.80;;;;;;;7.27;73.76;100920.06;4996014;28;96815;-32
2023/04/14 00:13:48;;;;;;;4.70;1.13;;;;;;;7.20;72.97;100915.00;4996965;28;108313;-32
2023/04/14 00:16:13;;;;;;;2.13;0.85;;;;;;;7.16;73.14;100908.00;4996116;28;101275;-32
2023/04/14 00:18:38;;;;;;;0.35;0.22;;;;;;;7.17;74.32;100919.63;4997723;28;96585;-32
2023/04/14 00:21:04;;;;;;;1.27;0.50;;;;;;;7.12;73.86;100922.53;4997432;28;96812;-32
2023/04/14 00:23:29;;;;;;;3.75;0.80;;;;;;;7.12;74.55;100922.53;4996373;28;99605;-31
2023/04/14 00:25:55;;;;;;;0.45;0.28;;;;;;;7.13;73.95;100921.59;4996491;28;113065;-33
2023/04/14 00:28:20;;;;;;;0.32;0.20;;;;;;;7.07;73.90;100921.00;4997038;28;96652;-32
2023/04/14 00:30:45;;;;;;;0.60;0.43;;;;;;;7.07;74.76;100924.56;4996722;28;96770;-32
2023/04/14 00:33:11;;;;;;;2.25;0.52;;;;;;;7.02;73.34;100924.78;4997052;28;97883;-32
2023/04/14 00:35:36;;;;;;;5.28;1.23;;;;;;;7.02;73.48;100929.28;4996753;28;98794;-32
2023/04/14 00:38:01;;;;;;;0.55;0.35;;;;;;;6.97;73.73;100931.31;4997540;28;96577;-31
2023/04/14 00:40:28;;;;;;;1.95;0.63;;;;;;;6.94;73.55;100929.66;4997701;28;96841;-32
2023/04/14 00:42:54;;;;;;;2.20;0.73;;;;;;;6.93;73.88;100933.28;4995247;28;101534;-32
2023/04/14 00:45:19;;;;;;;1.00;0.55;;;;;;;6.86;74.31;100928.25;4995267;28;99673;-32
2023/04/14 00:47:45;;;;;;;2.88;0.75;;;;;;;6.90;74.86;100933.41;4996593;28;96626;-32
2023/04/14 00:50:12;;;;;;;0.45;0.40;;;;;;;6.89;75.12;100934.38;4997098;28;96647;-32
2023/04/14 00:52:39;;;;;;;1.58;0.43;;;;;;;6.86;74.85;100939.00;4997365;28;101498;-32
2023/04/14 00:55:05;;;;;;;1.50;1.10;;;;;;;6.85;74.42;100935.44;4998670;28;100796;-32
2023/04/14 00:57:30;;;;;;;1.92;0.57;;;;;;;6.84;75.10;100938.19;5000500;28;96601;-32
2023/04/14 01:00:01;;;;;;;3.30;0.60;;;;;;;6.77;75.37;100940.31;5000661;28;96798;-32
2023/04/14 01:02:28;;;;;;;1.48;0.77;;;;;;;6.72;75.77;100945.91;4998642;28;100810;-32
2023/04/14 01:04:54;;;;;;;7.30;0.73;;;;;;;6.70;75.26;100939.69;5000418;28;98974;-32
2023/04/14 01:07:21;;;;;;;2.25;0.50;;;;;;;6.68;76.46;100951.47;5000380;28;96494;-32
2023/04/14 01:09:46;;;;;;;0.63;0.28;;;;;;;6.64;76.18;100950.72;4998910;28;96683;-32
2023/04/14 01:12:11;;;;;;;2.75;0.57;;;;;;;6.63;75.99;100956.19;4999439;28;97988;-32
2023/04/14 01:14:41;;;;;;;1.40;0.68;;;;;;;6.57;77.19;100949.25;4999745;28;98410;-32
2023/04/14 01:17:30;;;;;;;2.22;0.45;;;;;;;6.56;76.31;100952.88;5000458;28;96576;-32
2023/04/14 01:20:27;;;;;;;0.60;0.40;;;;;;;6.60;76.41;100941.03;4999137;28;96831;-32
2023/04/14 01:23:05;;;;;;;0.77;0.47;;;;;;;6.55;75.71;100941.25;4998108;28;99356;-32
2023/04/14 01:25:43;;;;;;;0.85;0.20;;;;;;;6.61;76.46;100953.56;4998348;28;100856;-32
2023/04/14 01:28:14;;;;;;;0.60;0.50;;;;;;;6.64;75.39;100933.69;5000094;28;96689;-32
2023/04/14 01:31:04;;;;;;;0.55;0.45;;;;;;;6.64;76.09;100939.09;4997866;28;96898;-32
2023/04/14 01:33:35;;;;;;;2.15;0.70;;;;;;;6.63;76.98;100935.53;4999769;28;98125;-32
2023/04/14 01:36:05;;;;;;;1.50;0.43;;;;;;;6.58;77.25;100943.81;4998351;28;100549;-32
2023/04/14 01:38:33;;;;;;;1.17;0.73;;;;;;;6.50;76.04;100937.84;4998209;28;96571;-32
2023/04/14 01:41:04;;;;;;;1.25;0.52;;;;;;;6.54;76.88;100936.78;4999694;28;96902;-32
2023/04/14 01:43:32;;;;;;;2.53;0.50;;;;;;;6.56;76.71;100950.19;4999324;28;99257;-32
2023/04/14 01:46:03;;;;;;;0.47;0.28;;;;;;;6.55;75.94;100943.03;4997617;28;100634;-32
2023/04/14 01:48:31;;;;;;;6.53;0.57;;;;;;;6.52;76.87;100941.38;4998517;28;96718;-31
2023/04/14 01:50:58;;;;;;;1.00;0.60;;;;;;;6.54;76.36;100952.06;4998292;28;96785;-32
2023/04/14 01:53:26;;;;;;;0.70;0.40;;;;;;;6.54;76.82;100946.69;4997896;28;101131;-32
2023/04/14 01:55:53;;;;;;;0.30;0.30;;;;;;;6.53;76.29;100945.81;4998211;28;98936;-32
2023/04/14 01:58:20;;;;;;;1.88;0.80;;;;;;;6.50;76.90;100947.75;4998246;28;96778;-32
2023/04/14 02:00:47;;;;;;;0.88;0.50;;;;;;;6.54;76.45;100952.94;4998255;28;96791;-32
2023/04/14 02:03:14;;;;;;;1.25;0.45;;;;;;;6.48;77.38;100945.13;4996829;28;101291;-31
2023/04/14 02:05:41;;;;;;;0.70;0.47;;;;;;;6.51;76.81;100947.69;4997733;28;101016;-31
2023/04/14 02:08:11;;;;;;;1.00;0.68;;;;;;;6.51;76.42;100950.38;4997973;28;96538;-32
2023/04/14 02:10:40;;;;;;;1.33;0.70;;;;;;;6.47;76.73;100950.59;4998233;28;96741;-32
2023/04/14 02:13:07;;;;;;;2.13;0.52;;;;;;;6.42;77.07;100950.78;4997539;28;100981;-31
2023/04/14 02:15:33;;;;;;;2.88;0.43;;;;;;;6.40;76.83;100949.97;4997661;28;100751;-31
2023/04/14 02:18:01;;;;;;;2.00;0.88;;;;;;;6.33;76.52;100949.34;4997905;28;96736;-32
2023/04/14 02:20:28;;;;;;;0.65;0.43;;;;;;;6.29;76.32;100963.88;4998353;28;96927;-31
2023/04/14 02:22:53;;;;;;;0.30;0.30;;;;;;;6.27;77.02;100949.63;4997391;28;100926;-31
2023/04/14 02:25:22;;;;;;;1.50;0.52;;;;;;;6.28;77.47;100945.13;4998819;28;98953;-31
2023/04/14 02:27:53;;;;;;;1.45;0.88;;;;;;;6.26;77.60;100949.69;4997451;28;96542;-32
2023/04/14 02:30:28;;;;;;;2.17;0.38;;;;;;;6.26;76.86;100950.53;4997042;28;96771;-32
2023/04/14 02:33:03;;;;;;;1.20;0.57;;;;;;;6.24;77.37;100952.41;4997191;28;100909;-31
2023/04/14 02:35:36;;;;;;;0.77;0.52;;;;;;;6.22;77.25;100957.00;4997449;28;100891;-32
2023/04/14 02:38:12;;;;;;;0.75;0.57;;;;;;;6.22;77.40;100964.19;4997779;28;96690;-31
2023/04/14 02:40:40;;;;;;;3.28;0.70;;;;;;;6.18;77.31;100959.91;4999468;28;96654;-32
2023/04/14 02:43:29;;;;;;;1.08;0.68;;;;;;;6.17;78.10;100959.00;4997057;28;100984;-32
2023/04/14 02:45:55;;;;;;;1.13;0.63;;;;;;;6.13;77.75;100952.88;4998528;28;99357;-32
2023/04/14 02:48:25;;;;;;;1.55;0.52;;;;;;;6.11;78.69;100948.50;4997494;28;96651;-32
2023/04/14 02:50:53;;;;;;;1.20;0.50;;;;;;;6.09;78.57;100945.88;4997486;28;96697;-32
2023/04/14 02:53:24;;;;;;;0.38;0.38;;;;;;;6.13;77.51;100958.25;4996587;28;100635;-32
2023/04/14 02:55:53;;;;;;;3.28;0.70;;;;;;;6.09;77.83;100943.19;4996890;28;100832;-31
2023/04/14 02:58:20;;;;;;;1.38;0.57;;;;;;;6.10;78.68;100954.81;4998660;28;96757;-32
2023/04/14 03:00:46;;;;;;;2.15;1.10;;;;;;;6.07;78.13;100946.88;4997467;28;96788;-32
2023/04/14 03:03:12;;;;;;;1.85;1.20;;;;;;;6.08;77.96;100951.34;4996778;28;101010;-32
2023/04/14 03:05:40;;;;;;;2.03;1.15;;;;;;;6.10;78.50;100960.19;4998077;28;99210;-31
2023/04/14 03:08:07;;;;;;;4.57;1.00;;;;;;;6.04;77.94;100947.00;4998432;28;96617;-32
2023/04/14 03:10:33;;;;;;;4.25;1.15;;;;;;;6.02;78.64;100949.75;4997309;28;96882;-32
2023/04/14 03:13:02;;;;;;;3.25;1.58;;;;;;;6.00;79.16;100956.13;4997853;28;99399;-32
2023/04/14 03:15:29;;;;;;;0.77;0.50;;;;;;;5.98;79.45;100960.69;4995558;28;100753;-31
2023/04/14 03:17:56;;;;;;;4.13;1.40;;;;;;;5.89;79.31;100957.41;4997781;28;97030;-32
2023/04/14 03:20:22;;;;;;;2.90;1.02;;;;;;;5.89;78.00;100965.50;4996865;28;96834;-31
2023/04/14 03:23:00;;;;;;;1.00;0.43;;;;;;;5.85;78.89;100962.97;4998090;28;97463;-32
2023/04/14 03:25:27;;;;;;;2.35;1.23;;;;;;;5.82;78.77;100950.53;4997852;28;97936;-32
2023/04/14 03:27:54;;;;;;;5.10;0.90;;;;;;;5.83;78.34;100968.41;4996934;28;96554;-32
2023/04/14 03:30:24;;;;;;;5.35;1.73;;;;;;;5.84;78.78;100959.44;4995924;28;96785;-32
2023/04/14 03:32:51;;;;;;;2.05;0.80;;;;;;;5.83;79.31;100959.47;4997593;28;99286;-32
2023/04/14 03:35:21;;;;;;;5.47;1.48;;;;;;;5.81;79.38;100970.28;4996711;28;100789;-32
2023/04/14 03:37:48;;;;;;;2.88;1.02;;;;;;;5.81;78.52;100969.41;4998041;28;96776;-32
2023/04/14 03:40:14;;;;;;;6.75;1.65;;;;;;;5.80;78.82;100967.66;4996736;28;96889;-32
2023/04/14 03:42:43;;;;;;;2.53;1.40;;;;;;;5.78;78.11;100970.41;4995636;28;100931;-31
2023/04/14 03:45:09;;;;;;;1.35;0.95;;;;;;;5.79;79.30;100969.47;4997359;28;97839;-32
2023/04/14 03:47:35;;;;;;;8.32;1.55;;;;;;;5.77;78.84;100970.47;4996759;28;96581;-31
2023/04/14 03:50:04;;;;;;;1.40;1.08;;;;;;;5.75;79.75;100965.16;4996667;28;96802;-31
2023/04/14 03:52:33;;;;;;;3.95;1.95;;;;;;;5.77;79.90;100965.97;4995899;28;101953;-32
2023/04/14 03:55:05;;;;;;;3.45;0.98;;;;;;;5.75;78.56;100966.03;4996014;28;101125;-31
2023/04/14 03:57:31;;;;;;;;;;;;;;;5.76;79.53;100969.59;4998215;28;96457;-32
2023/04/14 03:59:59;;;;;;;1.35;0.93;;;;;;;5.77;79.46;100971.34;4997049;28;96906;-32
2023/04/14 04:02:26;;;;;;;1.05;0.75;;;;;;;5.72;78.47;100968.84;4995983;28;99915;-32
2023/04/14 04:04:53;;;;;;;2.53;1.10;;;;;;;5.71;78.47;100958.16;4995506;28;101575;-31
2023/04/14 04:07:20;;;;;;;1.48;0.93;;;;;;;5.73;78.45;100972.41;4995768;28;96531;-32
2023/04/14 04:09:47;;;;;;;2.05;1.48;;;;;;;5.70;79.65;100980.59;4996397;28;96708;-32
2023/04/14 04:12:15;;;;;;;2.35;0.85;;;;;;;5.67;79.23;100978.00;4997121;28;97884;-32
2023/04/14 04:14:40;;;;;;;2.30;1.17;;;;;;;5.66;79.59;100977.13;4995777;28;100653;-32
2023/04/14 04:17:07;;;;;;;2.78;1.35;;;;;;;5.70;79.05;100969.84;4997702;28;96581;-31
2023/04/14 04:19:34;;;;;;;6.07;1.80;;;;;;;5.71;79.45;100980.53;4997286;28;96847;-32
2023/04/14 04:22:02;;;;;;;5.57;1.50;;;;;;;5.72;79.22;100973.31;4995750;28;101186;-32
2023/04/14 04:24:30;;;;;;;1.83;1.17;;;;;;;5.72;78.64;100981.38;4996007;28;100746;-32
2023/04/14 04:26:56;;;;;;;3.97;1.48;;;;;;;5.70;79.48;100981.47;4995954;28;97227;-32
2023/04/14 04:29:22;;;;;;;4.32;1.48;;;;;;;5.69;79.46;100974.31;4995766;28;97091;-31
2023/04/14 04:31:48;;;;;;;3.45;1.42;;;;;;;5.71;78.94;100977.84;4994814;28;101354;-32
2023/04/14 04:34:18;;;;;;;3.30;1.00;;;;;;;5.70;79.44;100981.47;4997039;28;97383;-31
2023/04/14 04:36:44;;;;;;;3.88;2.35;;;;;;;5.67;79.68;100976.22;4997576;28;96512;-31
2023/04/14 04:39:09;;;;;;;4.93;2.15;;;;;;;5.61;79.27;100976.44;4995891;28;96797;-32
2023/04/14 04:41:35;;;;;;;3.75;1.25;;;;;;;5.59;79.43;100988.19;4996689;28;99947;-32
2023/04/14 04:44:00;;;;;;;3.08;1.13;;;;;;;5.59;80.44;100980.13;4996567;28;99589;-31
2023/04/14 04:46:46;;;;;;;2.83;1.17;;;;;;;5.65;80.12;100983.47;4997084;28;96718;-32
2023/04/14 04:49:12;;;;;;;5.15;2.35;;;;;;;5.65;79.48;100987.94;4997817;28;96549;-32
2023/04/14 04:51:37;;;;;;;2.80;1.13;;;;;;;5.66;80.25;100984.34;4996718;28;97969;-31
2023/04/14 04:54:03;;;;;;;1.60;0.70;;;;;;;5.68;79.48;100990.53;4996557;28;104524;-32
2023/04/14 04:56:28;;;;;;;8.52;1.88;;;;;;;5.69;79.98;100984.22;4995232;28;96559;-31
2023/04/14 04:58:53;;;;;;;4.22;1.92;;;;;;;5.69;79.73;100992.25;4997084;28;96776;-32
2023/04/14 05:01:19;;;;;;;2.13;1.33;;;;;;;5.64;79.79;100989.75;4996788;28;97284;-32
2023/04/14 05:03:45;;;;;;;1.00;0.73;;;;;;;5.68;79.59;100987.84;4996356;28;99338;-32
2023/04/14 05:06:11;;;;;;;3.03;1.38;;;;;;;5.68;80.51;100986.03;4996804;28;96457;-32
2023/04/14 05:08:36;;;;;;;5.65;1.70;;;;;;;5.68;79.87;100982.47;4995595;28;96754;-32
2023/04/14 05:11:02;;;;;;;1.58;1.13;;;;;;;5.68;79.87;100991.41;4996423;28;97518;-31
2023/04/14 05:13:27;;;;;;;2.78;1.48;;;;;;;5.70;79.86;100996.72;4996536;28;98675;-32
2023/04/14 05:16:04;;;;;;;3.40;1.30;;;;;;;5.71;80.20;100987.72;4996058;28;105499;-32
2023/04/14 05:18:30;;;;;;;4.15;1.27;;;;;;;5.68;79.42;100991.41;4995487;28;96847;-31
2023/04/14 05:21:03;;;;;;;6.10;1.90;;;;;;;5.69;79.67;101005.69;4994506;28;101004;-31
2023/04/14 05:23:31;;;;;;;2.38;1.42;;;;;;;5.66;78.63;101006.69;4995068;28;99247;-31
2023/04/14 05:25:56;;;;;;;10.82;1.58;;;;;;;5.58;80.09;101007.91;4995377;28;96494;-32
2023/04/14 05:28:22;;;;;;;6.50;1.92;;;;;;;5.54;80.17;101013.41;4996610;28;96766;-32
2023/04/14 05:30:47;;;;;;;1.70;0.88;;;;;;;5.48;80.90;101010.09;4995815;28;98036;-32
2023/04/14 05:33:12;;;;;;;1.02;0.73;;;;;;;5.48;81.35;101002.03;4995768;28;115152;-31
2023/04/14 05:35:38;;;;;;;6.68;1.50;;;;;;;5.47;80.64;101011.91;4996507;28;99676;-32
2023/04/14 05:38:03;;;;;;;1.52;1.15;;;;;;;5.44;81.16;101019.22;4998753;28;96703;-31
2023/04/14 05:40:32;;;;;;;2.58;1.30;;;;;;;5.43;81.14;101010.25;4999244;28;98852;-31
2023/04/14 05:42:57;;;;;;;2.25;0.82;;;;;;;5.45;81.69;101016.44;4997969;28;100858;-32
2023/04/14 05:45:23;;;;;;;0.77;0.70;;;;;;;5.43;81.76;101015.63;4999000;28;96733;-31
2023/04/14 05:47:49;;;;;;;1.75;1.23;;;;;;;5.41;83.20;101022.00;4998534;28;96857;-32
2023/04/14 05:50:15;;;;;;;2.85;1.48;;;;;;;5.42;82.25;101021.94;4999571;28;97828;-31
2023/04/14 05:52:40;;;;;;;1.73;1.27;;;;;;;5.42;82.47;101003.16;4997852;28;100685;-31
2023/04/14 05:55:06;;;;;;;2.53;0.68;;;;;;;5.43;82.03;101012.94;4999926;28;96428;-32
2023/04/14 05:57:31;;;;;;;0.73;0.65;;;;;;;5.53;82.33;101022.44;4999729;28;96775;-32
2023/04/14 05:59:57;;;;;;;1.33;1.05;;;;;;;5.58;81.80;101015.97;4998649;28;111165;-32
2023/04/14 06:02:22;;;;;;;0.88;0.63;;;;;;;5.67;81.51;101021.00;4998874;28;118136;-31
2023/04/14 06:04:47;;;;;;;1.27;0.73;;;;;;;5.72;81.97;101008.25;4999494;28;96458;-32
2023/04/14 06:07:13;;;;;;;1.25;0.70;;;;;;;5.79;81.38;101015.16;4999541;28;96832;-31
2023/04/14 06:09:38;;;;;;;1.25;0.85;;;;;;;5.85;82.24;101016.75;4998705;28;97376;-31
2023/04/14 06:12:03;;;;;;;1.42;1.15;;;;;;;5.92;80.94;101015.56;4998973;28;97734;-32
2023/04/14 06:14:29;;;;;;;2.25;1.20;;;;;;;6.02;80.48;101008.03;4999590;28;96735;-31
2023/04/14 06:16:54;;;;;;;0.98;0.85;;;;;;;6.11;80.61;101004.97;4999318;28;101071;-31
2023/04/14 06:19:19;;;;;;;2.78;1.20;;;;;;;6.19;80.44;101010.03;4998827;28;99443;-31
2023/04/14 06:21:45;;;;;;;2.58;1.13;;;;;;;6.24;81.35;101005.34;4998906;28;97849;-32
2023/04/14 06:24:11;;;;;;;4.25;1.70;;;;;;;6.32;80.76;101006.78;4997958;28;96588;-31
2023/04/14 06:26:36;;;;;;;2.58;0.85;;;;;;;6.51;79.42;101004.22;4999621;28;96799;-32
2023/04/14 06:29:01;;;;;;;1.35;0.77;;;;;;;6.61;80.53;101002.00;4998814;28;97598;-32
2023/04/14 06:31:27;;;;;;;1.85;1.13;;;;;;;6.70;79.60;101000.75;4997934;28;115679;-31
2023/04/14 06:33:52;;;;;;;1.08;0.52;;;;;;;6.86;79.30;101003.63;4998829;28;96507;-31
2023/04/14 06:36:17;;;;;;;2.70;1.48;;;;;;;7.01;78.18;101001.16;4999139;28;96688;-31
2023/04/14 06:38:43;;;;;;;1.45;1.05;;;;;;;7.11;77.90;101008.81;4998482;28;99555;-31
2023/04/14 06:41:08;;;;;;;5.80;0.90;;;;;;;7.22;77.48;100998.41;4998145;28;99076;-31
2023/04/14 06:43:34;;;;;;;2.17;0.75;;;;;;;7.42;77.15;101002.91;4999267;28;96766;-31
2023/04/14 06:45:59;;;;;;;1.05;0.80;;;;;;;7.60;76.88;101001.16;4998988;28;96759;-31
2023/04/14 06:48:26;;;;;;;2.20;1.13;;;;;;;7.71;76.17;100993.44;4997210;28;99905;-32
2023/04/14 06:50:53;;;;;;;5.25;1.17;;;;;;;7.90;75.66;100998.84;4998701;28;99162;-31
2023/04/14 06:53:18;;;;;;;2.17;1.00;;;;;;;8.03;75.12;100991.91;4998832;28;96599;-32
2023/04/14 06:55:44;;;;;;;1.33;0.70;;;;;;;8.20;74.39;100992.88;4998673;28;96907;-32
2023/04/14 06:58:09;;;;;;;2.63;1.08;;;;;;;8.34;73.89;100995.78;4998207;28;97241;-31
2023/04/14 07:00:35;;;;;;;2.13;0.98;;;;;;;8.47;72.93;101005.06;4997659;28;121737;-32
2023/04/14 07:03:00;;;;;;;1.98;0.75;;;;;;;8.62;72.90;100992.59;4998592;28;96608;-32
2023/04/14 07:05:25;;;;;;;0.93;0.47;;;;;;;8.76;71.94;100994.59;4998907;28;96648;-32
2023/04/14 07:07:51;;;;;;;2.40;1.15;;;;;;;8.88;71.66;100990.38;4997883;28;99255;-31
2023/04/14 07:10:16;;;;;;;1.67;0.98;;;;;;;9.08;71.28;100992.91;4998150;28;97764;-32
2023/04/14 07:12:41;;;;;;;2.33;1.13;;;;;;;9.15;71.04;100982.63;4998577;28;96589;-32
2023/04/14 07:15:07;;;;;;;1.50;0.70;;;;;;;9.27;69.85;100978.41;4998793;28;96802;-31
2023/04/14 07:17:35;;;;;;;1.75;0.95;;;;;;;9.50;70.05;100987.97;4998195;28;99254;-32
2023/04/14 07:20:02;;;;;;;1.83;0.70;;;;;;;9.65;68.94;100975.44;4996508;28;100695;-32
2023/04/14 07:22:27;;;;;;;4.40;0.80;;;;;;;9.92;69.48;100973.88;4996501;28;96716;-31
2023/04/14 07:24:53;;;;;;;1.63;1.00;;;;;;;10.16;68.04;100968.91;4998108;28;96777;-32
2023/04/14 07:27:18;;;;;;;0.93;0.65;;;;;;;10.44;67.91;100963.72;4997179;28;120183;-32
2023/04/14 07:29:43;;;;;;;1.15;0.63;;;;;;;10.71;67.67;100970.22;4996750;28;110243;-32
2023/04/14 07:32:10;;;;;;;1.33;0.52;;;;;;;10.51;66.22;100968.72;4998468;28;96469;-31
2023/04/14 07:34:36;;;;;;;2.00;0.93;;;;;;;10.14;66.64;100968.09;4998433;28;96789;-31
2023/04/14 07:37:01;;;;;;;3.92;1.17;;;;;;;10.12;67.87;100966.44;4997649;28;99734;-31
2023/04/14 07:39:26;;;;;;;1.25;0.80;;;;;;;10.04;66.62;100968.75;4997831;28;97851;-32
2023/04/14 07:41:52;;;;;;;2.15;1.02;;;;;;;9.95;67.29;100962.00;4998250;28;96541;-32
2023/04/14 07:44:17;;;;;;;0.88;0.68;;;;;;;10.03;67.10;100958.84;4997667;28;96790;-32
2023/04/14 07:46:42;;;;;;;2.60;0.75;;;;;;;10.03;67.13;100951.59;4996826;28;106391;-32
2023/04/14 07:49:08;;;;;;;0.68;0.45;;;;;;;10.37;67.14;100952.41;4997051;28;109912;-32
2023/04/14 07:51:33;;;;;;;1.52;0.80;;;;;;;10.74;67.34;100955.59;4997630;28;99791;-31
2023/04/14 07:53:58;;;;;;;0.60;0.35;;;;;;;10.88;65.11;100957.47;4997921;28;96790;-32
2023/04/14 07:56:24;;;;;;;4.22;0.63;;;;;;;10.73;65.53;100959.28;4997557;28;98026;-32
2023/04/14 07:58:49;;;;;;;3.38;0.90;;;;;;;10.87;66.36;100953.00;4997367;28;99133;-31
2023/04/14 08:01:15;;;;;;;3.50;0.85;;;;;;;11.17;65.71;100966.50;4997231;28;96500;-32
2023/04/14 08:03:41;;;;;;;1.35;1.00;;;;;;;11.27;64.53;100964.97;4996906;28;96774;-31
2023/04/14 08:06:06;;;;;;;2.38;0.70;;;;;;;11.08;64.96;100961.66;4997539;28;97276;-32
2023/04/14 08:08:33;;;;;;;2.45;1.13;;;;;;;10.97;65.58;100963.22;4997272;28;97959;-32
2023/04/14 08:10:58;;;;;;;4.38;1.20;;;;;;;11.09;65.79;100961.56;4995806;28;96607;-32
2023/04/14 08:13:24;;;;;;;2.15;1.02;;;;;;;11.32;64.86;100957.44;4997540;28;96839;-32
2023/04/14 08:15:49;;;;;;;2.85;0.88;;;;;;;11.54;63.93;100954.22;4997070;28;99398;-32
2023/04/14 08:18:15;;;;;;;1.95;0.85;;;;;;;11.81;63.65;100959.69;4997013;28;99185;-32
2023/04/14 08:20:40;;;;;;;3.42;0.65;;;;;;;12.02;62.65;100954.75;4997387;28;96529;-32
2023/04/14 08:23:06;;;;;;;2.28;1.17;;;;;;;11.90;62.22;100959.16;4997664;28;96761;-32
2023/04/14 08:25:31;;;;;;;2.60;0.75;;;;;;;11.82;61.58;100966.91;4996998;28;97531;-32
2023/04/14 08:27:57;;;;;;;2.03;0.50;;;;;;;12.11;61.49;100951.44;4997499;28;97748;-32
2023/04/14 08:30:22;;;;;;;2.30;0.68;;;;;;;12.24;61.38;100965.06;4996540;28;99731;-32
2023/04/14 08:32:48;;;;;;;0.63;0.40;;;;;;;12.42;61.10;100964.78;4996014;28;96829;-32
2023/04/14 08:35:13;;;;;;;1.73;0.55;;;;;;;12.52;60.62;100958.63;4996742;28;97389;-32
2023/04/14 08:37:39;;;;;;;1.20;0.65;;;;;;;12.58;59.61;100960.06;4996644;28;99092;-32
2023/04/14 08:40:08;;;;;;;1.58;0.73;;;;;;;12.79;60.85;100952.28;4997293;28;96464;-32
2023/04/14 08:42:34;;;;;;;0.57;0.40;;;;;;;12.76;59.14;100947.06;4995745;28;96917;-32
2023/04/14 08:44:59;;;;;;;1.08;0.60;;;;;;;12.87;59.37;100947.19;4996558;28;97658;-31
2023/04/14 08:47:28;;;;;;;1.30;0.57;;;;;;;13.06;59.22;100946.78;4996861;28;97034;-31
2023/04/14 08:50:15;;;;;;;1.00;0.60;;;;;;;13.07;57.59;100947.63;4995793;28;96622;-31
2023/04/14 08:52:42;;;;;;;2.35;0.50;;;;;;;13.21;56.03;100946.66;4997477;28;96547;-31
2023/04/14 08:55:09;;;;;;;1.13;0.40;;;;;;;13.25;57.47;100949.06;4995368;28;98999;-31
2023/04/14 08:57:35;;;;;;;2.42;0.63;;;;;;;13.20;58.01;100943.06;4995252;28;100664;-31
2023/04/14 09:00:03;;;;;;;1.85;0.50;;;;;;;13.36;56.74;100951.91;4996776;28;96779;-32
2023/04/14 09:02:31;;;;;;;1.02;0.50;;;;;;;13.51;56.17;100947.19;4995533;28;96874;-32
2023/04/14 09:04:58;;;;;;;1.77;0.70;;;;;;;13.55;53.51;100940.56;4994914;28;100995;-32
2023/04/14 09:07:23;;;;;;;4.32;0.30;;;;;;;13.70;54.92;100932.25;4995113;28;100912;-32
2023/04/14 09:09:49;;;;;;;0.82;0.38;;;;;;;13.86;53.73;100937.44;4997101;28;96719;-32
2023/04/14 09:12:16;;;;;;;1.13;0.50;;;;;;;13.93;51.79;100930.56;4996105;28;96966;-32
2023/04/14 09:14:43;;;;;;;2.05;0.60;;;;;;;14.00;54.15;100930.00;4998615;28;99101;-32
2023/04/14 09:17:09;;;;;;;0.65;0.40;;;;;;;14.10;52.18;100918.41;4998938;28;100695;-32
2023/04/14 09:19:35;;;;;;;5.50;0.82;;;;;;;14.20;53.89;100928.47;5000120;28;96491;-32
2023/04/14 09:22:00;;;;;;;1.45;0.52;;;;;;;14.08;51.90;100942.16;4998762;28;96845;-32
2023/04/14 09:24:32;;;;;;;2.03;0.63;;;;;;;13.89;52.70;100939.94;4997832;28;98476;-31
2023/04/14 09:27:00;;;;;;;1.13;0.47;;;;;;;13.84;51.85;100932.09;5000050;28;97792;-32
2023/04/14 09:29:26;;;;;;;5.55;0.88;;;;;;;14.14;52.20;100931.69;4999215;28;96887;-31
2023/04/14 09:31:52;;;;;;;1.63;0.82;;;;;;;14.07;52.57;100935.84;4998721;28;97164;-32
2023/04/14 09:34:19;;;;;;;4.10;1.13;;;;;;;13.92;51.53;100926.97;4999684;28;97480;-32
2023/04/14 09:37:01;;;;;;;1.23;0.70;;;;;;;14.22;50.89;100933.81;4998329;28;100870;-32
2023/04/14 09:39:26;;;;;;;;;;;;;;;14.41;51.92;100933.28;5000516;28;96475;-32
2023/04/14 09:41:52;;;;;;;1.92;0.50;;;;;;;14.62;51.00;100925.38;5000636;28;96900;-32
2023/04/14 09:44:18;;;;;;;2.30;0.95;;;;;;;14.70;51.57;100922.91;4997750;28;101024;-32
2023/04/14 09:46:56;;;;;;;3.05;0.85;;;;;;;14.61;52.04;100921.78;4999570;28;97950;-32
2023/04/14 09:49:22;;;;;;;2.67;0.95;;;;;;;14.38;52.39;100922.63;4999414;28;96571;-32
2023/04/14 09:51:48;;;;;;;2.80;0.88;;;;;;;14.51;52.08;100923.41;4999697;28;96874;-32
2023/04/14 09:54:23;;;;;;;2.22;1.15;;;;;;;14.80;50.77;100918.47;4999482;28;98526;-32
2023/04/14 09:56:48;;;;;;;3.42;1.05;;;;;;;14.86;51.89;100906.22;4999238;28;99416;-32
2023/04/14 09:59:14;;;;;;;2.00;0.82;;;;;;;14.90;51.66;100899.53;4999789;28;96443;-32
2023/04/14 10:01:44;;;;;;;5.68;0.75;;;;;;;15.12;49.47;100898.69;4998334;28;96920;-32
2023/04/14 10:04:25;;;;;;;5.70;1.00;;;;;;;14.80;51.49;100896.66;4997767;28;101091;-32
2023/04/14 10:06:54;;;;;;;3.00;0.82;;;;;;;14.67;49.66;100904.06;4999700;28;97910;-32
2023/04/14 10:09:23;;;;;;;0.93;0.57;;;;;;;14.31;51.83;100902.28;4998145;28;96556;-32
2023/04/14 10:12:13;;;;;;;1.35;0.70;;;;;;;14.57;52.22;100890.28;4999552;28;96825;-32
2023/04/14 10:14:39;;;;;;;1.33;0.60;;;;;;;14.44;49.93;100895.78;4998411;28;99322;-32
2023/04/14 10:17:06;;;;;;;4.97;0.68;;;;;;;14.72;49.91;100896.38;4997567;28;101240;-32
2023/04/14 10:19:32;;;;;;;1.85;0.60;;;;;;;15.14;49.40;100890.41;4997966;28;96795;-32
2023/04/14 10:21:58;;;;;;;3.60;0.80;;;;;;;15.05;47.74;100892.84;4999201;28;96849;-32
2023/04/14 10:24:24;;;;;;;2.95;0.70;;;;;;;15.32;48.83;100897.06;4997074;28;100997;-32
2023/04/14 10:26:50;;;;;;;1.67;0.57;;;;;;;15.50;48.59;100884.66;4997272;28;101713;-32
2023/04/14 10:29:16;;;;;;;5.10;0.98;;;;;;;15.82;48.48;100891.22;4997161;28;97255;-32
2023/04/14 10:31:46;;;;;;;1.15;0.60;;;;;;;15.85;47.38;100883.66;4998431;28;96911;-32
2023/04/14 10:34:12;;;;;;;0.55;0.40;;;;;;;15.89;47.90;100881.53;4997348;28;101661;-32
2023/04/14 10:36:39;;;;;;;1.17;0.47;;;;;;;15.84;46.53;100878.31;4997197;28;101169;-32
2023/04/14 10:39:06;;;;;;;4.38;0.73;;;;;;;15.51;48.51;100874.59;4997199;28;96980;-32
2023/04/14 10:41:46;;;;;;;0.85;0.40;;;;;;;15.66;46.53;100888.84;4998833;28;96892;-32
2023/04/14 10:44:28;;;;;;;1.83;0.60;;;;;;;15.19;47.80;100883.56;4998441;28;99269;-32
2023/04/14 10:46:55;;;;;;;1.73;0.52;;;;;;;14.81;49.11;100871.13;4996733;28;100858;-32
2023/04/14 10:49:29;;;;;;;1.25;0.35;;;;;;;14.81;49.62;100875.72;4997547;28;96572;-32
2023/04/14 10:51:58;;;;;;;2.05;0.60;;;;;;;14.77;49.15;100866.88;4998767;28;96694;-32
2023/04/14 10:54:23;;;;;;;3.03;0.43;;;;;;;15.17;48.42;100873.75;4997005;28;101004;-32
2023/04/14 10:57:09;;;;;;;3.42;0.68;;;;;;;15.73;48.55;100876.50;4999124;28;97289;-32
2023/04/14 10:59:38;;;;;;;1.73;0.75;;;;;;;15.67;45.71;100866.03;4997337;28;96597;-32
2023/04/14 11:02:03;;;;;;;1.25;0.68;;;;;;;15.26;44.64;100865.69;4998723;28;96839;-32
2023/04/14 11:04:29;;;;;;;1.25;0.55;;;;;;;15.33;46.78;100863.34;4997660;28;106562;-32
2023/04/14 11:06:57;;;;;;;1.15;0.75;;;;;;;15.48;46.50;100864.81;4998098;28;99619;-32
2023/04/14 11:09:33;;;;;;;1.83;0.75;;;;;;;15.53;46.11;100860.84;4998475;28;96599;-32
2023/04/14 11:12:24;;;;;;;1.63;0.77;;;;;;;15.20;47.19;100860.72;4998233;28;96727;-32
2023/04/14 11:14:55;;;;;;;2.50;0.65;;;;;;;15.04;47.32;100861.13;4996798;28;100852;-32
2023/04/14 11:17:21;;;;;;;4.82;0.95;;;;;;;15.51;47.84;100850.91;4998062;28;98907;-32
2023/04/14 11:19:47;;;;;;;1.40;0.52;;;;;;;15.31;46.48;100859.00;4997278;28;96458;-32
2023/04/14 11:22:13;;;;;;;3.10;1.02;;;;;;;14.76;46.82;100861.56;4998810;28;96810;-32
2023/04/14 11:24:39;;;;;;;3.17;1.25;;;;;;;14.49;48.43;100850.94;4998070;28;97743;-32
2023/04/14 11:27:04;;;;;;;2.60;0.60;;;;;;;14.39;48.85;100864.41;4998072;28;98007;-32
2023/04/14 11:29:30;;;;;;;3.25;0.63;;;;;;;14.45;47.92;100861.22;4996850;28;96824;-32
2023/04/14 11:32:04;;;;;;;2.22;0.65;;;;;;;14.40;48.44;100867.03;4998162;28;96732;-32